Time;durP1;ratioP1;P1;durP2;ratioP2;P2;SDS_P1;SDS_P2;PMS_P1;PMS_P2;Temp;Humidity;BMP_temperature;BMP_pressure;BME280_temperature;BME280_humidity;BME280_pressure;Samples;Min_cycle;Max_cycle;Signal;HPM_P1;HPM_P2
2022/08/31 00:04:01;;;;;;;0.20;0.20;;;;;;;18.14;53.89;102530.97;1983835;29;20051;-64
2022/08/31 00:05:05;;;;;;;0.20;0.20;;;;;;;18.18;53.87;102540.84;1983461;29;20090;-65
2022/08/31 00:06:08;;;;;;;0.20;0.20;;;;;;;18.21;53.82;102540.16;1982904;29;20058;-64
2022/08/31 00:07:10;;;;;;;0.20;0.20;;;;;;;18.24;53.92;102533.97;1981949;29;20195;-64
2022/08/31 00:08:13;;;;;;;0.20;0.20;;;;;;;18.23;53.79;102537.88;1982719;29;20135;-64
2022/08/31 00:09:15;;;;;;;0.10;0.10;;;;;;;18.23;53.46;102531.59;1982539;29;20419;-64
2022/08/31 00:10:19;;;;;;;0.20;0.20;;;;;;;18.16;53.92;102534.94;1983584;29;20861;-66
2022/08/31 00:11:34;;;;;;;0.30;0.30;;;;;;;18.14;53.90;102536.44;1983000;29;20663;-64
2022/08/31 00:12:41;;;;;;;0.30;0.30;;;;;;;18.06;54.32;102535.44;1983098;29;20544;-64
2022/08/31 00:13:45;;;;;;;0.20;0.20;;;;;;;18.05;54.24;102533.84;1982962;29;20091;-64
2022/08/31 00:14:48;;;;;;;0.20;0.20;;;;;;;18.03;54.11;102532.63;1982457;29;20131;-64
2022/08/31 00:15:51;;;;;;;0.20;0.20;;;;;;;18.04;54.36;102526.81;1983074;29;20063;-64
2022/08/31 00:16:56;;;;;;;0.28;0.28;;;;;;;18.02;53.88;102534.56;1982571;29;20055;-62
2022/08/31 00:17:58;;;;;;;0.28;0.28;;;;;;;18.00;54.39;102539.56;1981909;29;20063;-63
2022/08/31 00:19:01;;;;;;;0.20;0.20;;;;;;;18.02;54.13;102531.81;1982773;29;20063;-64
2022/08/31 00:20:06;;;;;;;0.30;0.30;;;;;;;17.98;54.05;102530.13;1983166;29;20054;-63
2022/08/31 00:21:29;;;;;;;0.30;0.30;;;;;;;17.96;54.34;102529.69;1983027;29;20082;-64
2022/08/31 00:22:31;;;;;;;0.20;0.20;;;;;;;17.93;54.14;102534.69;1980244;29;20162;-64
2022/08/31 00:23:34;;;;;;;0.20;0.20;;;;;;;17.97;54.14;102534.81;1983847;29;20054;-63
2022/08/31 00:24:36;;;;;;;0.22;0.22;;;;;;;17.99;54.05;102531.72;1982825;29;20146;-64
2022/08/31 00:25:40;;;;;;;0.20;0.20;;;;;;;17.93;54.18;102536.66;1982365;29;20139;-64
2022/08/31 00:26:42;;;;;;;0.20;0.20;;;;;;;17.93;54.01;102533.94;1983134;29;20110;-64
2022/08/31 00:27:46;;;;;;;0.20;0.20;;;;;;;17.89;54.27;102543.94;1983017;29;20177;-65
2022/08/31 00:28:48;;;;;;;0.20;0.20;;;;;;;17.87;54.32;102530.63;1983404;29;20174;-64
2022/08/31 00:29:51;;;;;;;0.30;0.30;;;;;;;17.84;54.38;102534.06;1983036;29;20063;-63
2022/08/31 00:30:52;;;;;;;0.30;0.30;;;;;;;17.81;54.42;102536.69;1982804;29;20083;-63
2022/08/31 00:31:57;;;;;;;0.20;0.20;;;;;;;17.77;54.59;102533.09;1983384;29;20114;-63
2022/08/31 00:32:59;;;;;;;0.20;0.20;;;;;;;17.73;54.73;102534.91;1982934;29;20059;-64
2022/08/31 00:34:02;;;;;;;0.20;0.20;;;;;;;17.75;54.68;102532.63;1983351;29;20062;-63
2022/08/31 00:35:05;;;;;;;0.30;0.30;;;;;;;17.73;54.65;102535.72;1982171;29;20143;-63
2022/08/31 00:36:11;;;;;;;0.20;0.20;;;;;;;17.72;54.50;102533.31;1982016;29;20063;-64
2022/08/31 00:37:13;;;;;;;0.10;0.10;;;;;;;17.71;54.65;102535.25;1982896;29;20059;-64
2022/08/31 00:38:16;;;;;;;0.20;0.20;;;;;;;17.72;54.37;102536.06;1982635;29;20725;-63
2022/08/31 00:39:18;;;;;;;0.20;0.20;;;;;;;17.69;54.78;102531.28;1984529;29;20111;-63
2022/08/31 00:40:22;;;;;;;0.20;0.20;;;;;;;17.72;54.68;102533.31;1983913;29;20082;-64
2022/08/31 00:41:28;;;;;;;0.30;0.30;;;;;;;17.73;54.42;102532.97;1983982;29;20051;-64
2022/08/31 00:42:31;;;;;;;0.28;0.28;;;;;;;17.73;54.56;102540.38;1984203;29;20062;-64
2022/08/31 00:43:37;;;;;;;0.30;0.30;;;;;;;17.72;54.33;102530.59;1983787;29;20472;-64
2022/08/31 00:44:41;;;;;;;0.20;0.20;;;;;;;17.71;54.74;102534.47;1984904;29;20067;-62
2022/08/31 00:45:43;;;;;;;0.20;0.20;;;;;;;17.72;54.43;102536.06;1984206;29;20427;-63
2022/08/31 00:46:46;;;;;;;0.20;0.20;;;;;;;17.72;54.45;102533.31;1983693;29;20138;-63
2022/08/31 00:47:49;;;;;;;0.20;0.20;;;;;;;17.74;54.39;102531.03;1983300;29;20059;-63
2022/08/31 00:48:59;;;;;;;0.20;0.20;;;;;;;17.70;54.11;102530.94;1984572;29;20529;-64
2022/08/31 00:50:04;;;;;;;0.20;0.20;;;;;;;17.67;54.03;102530.84;1984440;29;20511;-64
2022/08/31 00:51:06;;;;;;;0.20;0.20;;;;;;;17.64;54.28;102537.00;1984507;29;20114;-64
2022/08/31 00:52:16;;;;;;;0.20;0.20;;;;;;;17.62;54.40;102526.41;1984034;29;20082;-64
2022/08/31 00:53:18;;;;;;;0.15;0.15;;;;;;;17.55;54.21;102530.88;1984562;29;20086;-64
2022/08/31 00:54:26;;;;;;;0.20;0.20;;;;;;;17.53;54.45;102524.97;1984182;29;20083;-64
2022/08/31 00:55:32;;;;;;;0.20;0.20;;;;;;;17.52;54.60;102528.84;1984592;29;20138;-64
2022/08/31 00:56:36;;;;;;;0.30;0.30;;;;;;;17.48;54.50;102533.41;1984752;29;20129;-65
2022/08/31 00:57:41;;;;;;;0.20;0.20;;;;;;;17.48;54.42;102533.41;1984544;29;20535;-64
2022/08/31 00:58:46;;;;;;;0.30;0.30;;;;;;;17.45;54.54;102536.81;1984621;29;20166;-65
2022/08/31 00:59:56;;;;;;;0.20;0.20;;;;;;;17.38;54.84;102531.91;1983193;29;20115;-65
2022/08/31 01:00:58;;;;;;;0.25;0.25;;;;;;;17.41;54.79;102535.91;1984187;29;20135;-65
2022/08/31 01:02:03;;;;;;;0.28;0.28;;;;;;;17.39;54.64;102535.44;1991262;29;20061;-65
2022/08/31 01:03:08;;;;;;;0.20;0.20;;;;;;;17.38;54.81;102534.66;1991120;29;20054;-65
2022/08/31 01:04:11;;;;;;;0.20;0.20;;;;;;;17.35;54.72;102540.00;1984434;29;20115;-64
2022/08/31 01:05:14;;;;;;;0.20;0.20;;;;;;;17.34;54.45;102543.88;1984727;29;20227;-64
2022/08/31 01:06:18;;;;;;;0.20;0.20;;;;;;;17.36;54.72;102541.59;1984263;29;20058;-64
2022/08/31 01:07:20;;;;;;;0.30;0.30;;;;;;;17.30;54.91;102532.06;1984628;29;20062;-64
2022/08/31 01:08:23;;;;;;;0.22;0.22;;;;;;;17.31;55.04;102539.09;1984774;29;20066;-64
2022/08/31 01:09:35;;;;;;;0.30;0.30;;;;;;;17.30;54.91;102543.00;1983650;29;20583;-64
2022/08/31 01:10:43;;;;;;;0.30;0.30;;;;;;;17.30;54.68;102537.53;1984860;29;20050;-64
2022/08/31 01:11:45;;;;;;;0.30;0.30;;;;;;;17.29;54.92;102546.84;1984263;29;20066;-64
2022/08/31 01:12:51;;;;;;;0.20;0.20;;;;;;;17.33;54.84;102536.84;1984257;29;20059;-64
2022/08/31 01:13:55;;;;;;;0.30;0.30;;;;;;;17.32;54.75;102535.22;1985628;29;20571;-65
2022/08/31 01:14:58;;;;;;;0.30;0.30;;;;;;;17.32;54.76;102533.31;1985636;29;20059;-64
2022/08/31 01:16:07;;;;;;;0.20;0.20;;;;;;;17.37;54.59;102540.44;1984111;29;20117;-64
2022/08/31 01:17:10;;;;;;;0.20;0.20;;;;;;;17.30;54.86;102532.84;1984230;29;20069;-64
2022/08/31 01:18:15;;;;;;;0.20;0.20;;;;;;;17.34;54.54;102539.22;1983757;29;20090;-64
2022/08/31 01:19:27;;;;;;;0.30;0.30;;;;;;;17.30;54.70;102543.00;1984346;29;20062;-64
2022/08/31 01:20:45;;;;;;;0.30;0.30;;;;;;;17.27;54.49;102554.56;1985179;29;20058;-65
2022/08/31 01:21:59;;;;;;;0.20;0.20;;;;;;;17.24;54.82;102541.59;1979361;29;20054;-65
2022/08/31 01:23:09;;;;;;;0.22;0.22;;;;;;;17.21;54.88;102551.28;1983548;29;20066;-65
2022/08/31 01:24:14;;;;;;;0.30;0.30;;;;;;;17.24;54.79;102538.88;1982912;29;20146;-65
2022/08/31 01:25:17;;;;;;;0.30;0.30;;;;;;;17.25;54.85;102537.75;1983574;29;20077;-65
2022/08/31 01:26:24;;;;;;;0.30;0.30;;;;;;;17.25;54.53;102546.72;1984676;29;20963;-64
2022/08/31 01:27:31;;;;;;;0.30;0.30;;;;;;;17.24;54.75;102544.34;1982925;29;20070;-65
2022/08/31 01:28:34;;;;;;;0.30;0.30;;;;;;;17.19;54.73;102541.84;1983240;29;20146;-64
2022/08/31 01:29:36;;;;;;;0.20;0.20;;;;;;;17.17;55.13;102539.47;1983564;29;20109;-64
2022/08/31 01:30:41;;;;;;;0.30;0.30;;;;;;;17.17;55.02;102549.59;1976170;29;20055;-65
2022/08/31 01:31:47;;;;;;;0.30;0.30;;;;;;;17.13;54.97;102541.28;1977226;29;20059;-64
2022/08/31 01:32:50;;;;;;;0.30;0.30;;;;;;;17.10;54.93;102543.91;1983355;29;20628;-64
2022/08/31 01:33:54;;;;;;;0.30;0.30;;;;;;;17.09;55.18;102547.78;1983549;29;20078;-65
2022/08/31 01:34:58;;;;;;;0.30;0.30;;;;;;;17.11;55.02;102550.97;1984624;29;20487;-64
2022/08/31 01:36:02;;;;;;;0.30;0.30;;;;;;;17.06;55.05;102545.75;1983960;29;20070;-64
2022/08/31 01:37:05;;;;;;;0.38;0.38;;;;;;;17.06;54.98;102545.75;1983555;29;20093;-65
2022/08/31 01:38:09;;;;;;;0.25;0.25;;;;;;;17.04;54.94;102545.28;1986100;29;20790;-64
2022/08/31 01:39:12;;;;;;;0.35;0.35;;;;;;;16.96;55.29;102548.94;1992695;29;20050;-64
2022/08/31 01:40:16;;;;;;;0.30;0.30;;;;;;;16.98;55.20;102546.66;1983933;29;20511;-64
2022/08/31 01:41:22;;;;;;;0.30;0.30;;;;;;;16.96;55.39;102554.38;1985016;29;20059;-65
2022/08/31 01:42:26;;;;;;;0.30;0.30;;;;;;;16.97;55.27;102553.22;1984802;29;20520;-64
2022/08/31 01:43:38;;;;;;;0.30;0.30;;;;;;;16.93;55.36;102550.41;1983523;29;20484;-64
2022/08/31 01:44:41;;;;;;;0.30;0.30;;;;;;;16.91;55.60;102546.41;1984748;29;20055;-65
2022/08/31 01:45:43;;;;;;;0.30;0.30;;;;;;;16.90;55.24;102547.56;1984239;29;20054;-64
2022/08/31 01:46:47;;;;;;;0.30;0.30;;;;;;;16.91;55.53;102547.22;1983958;29;20112;-64
2022/08/31 01:47:49;;;;;;;0.30;0.30;;;;;;;16.90;55.56;102542.91;1983438;29;20059;-65
2022/08/31 01:48:52;;;;;;;0.30;0.30;;;;;;;16.90;55.84;102545.66;1983162;29;20252;-65
2022/08/31 01:49:54;;;;;;;0.30;0.30;;;;;;;16.91;56.02;102546.41;1982974;29;20059;-65
2022/08/31 01:50:59;;;;;;;0.30;0.30;;;;;;;16.92;55.73;102550.75;1983892;29;20086;-64
2022/08/31 01:52:03;;;;;;;0.30;0.30;;;;;;;16.91;55.55;102551.88;1983708;29;20055;-64
2022/08/31 01:53:09;;;;;;;0.20;0.20;;;;;;;16.91;55.51;102557.34;1976665;29;20120;-64
2022/08/31 01:54:12;;;;;;;0.30;0.30;;;;;;;16.90;55.56;102548.38;1983767;29;20051;-64
2022/08/31 01:55:15;;;;;;;0.20;0.20;;;;;;;16.91;55.94;102551.88;1982563;29;20081;-64
2022/08/31 01:56:20;;;;;;;0.20;0.20;;;;;;;16.94;55.80;102551.19;1983415;29;20066;-64
2022/08/31 01:57:23;;;;;;;0.20;0.20;;;;;;;16.91;55.83;102552.69;1990549;29;20133;-64
2022/08/31 01:58:56;;;;;;;0.30;0.30;;;;;;;16.88;55.83;102558.03;1982056;29;20082;-65
2022/08/31 02:00:10;;;;;;;0.20;0.20;;;;;;;16.86;55.37;102554.81;1981786;29;20074;-65
2022/08/31 02:01:16;;;;;;;0.20;0.20;;;;;;;16.86;55.70;102560.28;1981764;29;20054;-64
2022/08/31 02:02:35;;;;;;;0.25;0.25;;;;;;;16.83;56.41;102555.50;1982502;29;20598;-64
2022/08/31 02:03:38;;;;;;;0.30;0.30;;;;;;;16.84;56.11;102559.84;1976103;29;20108;-64
2022/08/31 02:04:40;;;;;;;0.30;0.30;;;;;;;16.84;56.21;102551.66;1982698;29;20094;-65
2022/08/31 02:05:43;;;;;;;0.30;0.30;;;;;;;16.84;55.97;102557.13;1983513;29;20093;-64
2022/08/31 02:06:48;;;;;;;0.30;0.30;;;;;;;16.85;56.08;102555.97;1983402;29;20492;-66
2022/08/31 02:07:52;;;;;;;0.30;0.30;;;;;;;16.81;56.10;102555.84;1983759;29;20073;-64
2022/08/31 02:08:56;;;;;;;0.40;0.40;;;;;;;16.83;56.14;102560.97;1982163;29;20480;-64
2022/08/31 02:09:59;;;;;;;0.30;0.30;;;;;;;16.82;56.08;102560.19;1983804;29;20531;-64
2022/08/31 02:11:01;;;;;;;0.20;0.20;;;;;;;16.82;56.25;102553.94;1984095;29;20059;-65
2022/08/31 02:12:04;;;;;;;0.30;0.30;;;;;;;16.77;56.37;102546.78;1976794;30;20055;-65
2022/08/31 02:13:07;;;;;;;0.30;0.30;;;;;;;16.79;56.13;102554.63;1984907;29;20074;-64
2022/08/31 02:14:12;;;;;;;0.30;0.30;;;;;;;16.78;56.13;102553.00;1982929;29;20144;-64
2022/08/31 02:15:14;;;;;;;0.30;0.30;;;;;;;16.76;56.02;102555.31;1975978;29;20062;-65
2022/08/31 02:16:17;;;;;;;0.30;0.30;;;;;;;16.72;55.95;102549.72;1983514;29;20110;-64
2022/08/31 02:17:19;;;;;;;0.30;0.30;;;;;;;16.74;56.36;102557.56;1983981;29;20518;-64
2022/08/31 02:18:22;;;;;;;0.30;0.30;;;;;;;16.73;56.19;102554.03;1984595;29;20070;-65
2022/08/31 02:19:24;;;;;;;0.30;0.30;;;;;;;16.73;56.16;102564.16;1982863;29;20141;-64
2022/08/31 02:20:30;;;;;;;0.40;0.40;;;;;;;16.69;56.20;102561.31;1983458;29;20151;-63
2022/08/31 02:21:33;;;;;;;0.40;0.40;;;;;;;16.67;56.00;102557.31;1983299;29;20046;-64
2022/08/31 02:22:38;;;;;;;0.30;0.30;;;;;;;16.64;56.04;102555.28;1991201;29;20058;-64
2022/08/31 02:23:41;;;;;;;0.30;0.30;;;;;;;16.62;55.96;102560.28;1993308;29;20058;-64
2022/08/31 02:24:44;;;;;;;0.28;0.28;;;;;;;16.60;56.19;102554.38;1983069;29;20055;-63
2022/08/31 02:25:47;;;;;;;0.30;0.30;;;;;;;16.57;56.22;102553.09;1982977;29;20085;-65
2022/08/31 02:26:49;;;;;;;0.35;0.35;;;;;;;16.55;56.59;102551.88;1983790;29;20168;-64
2022/08/31 02:27:55;;;;;;;0.30;0.30;;;;;;;16.53;56.67;102551.41;1989870;29;20050;-64
2022/08/31 02:28:57;;;;;;;0.30;0.30;;;;;;;16.52;56.60;102547.09;1990720;29;20594;-65
2022/08/31 02:30:00;;;;;;;0.30;0.30;;;;;;;16.50;56.35;102547.44;1983576;29;20089;-63
2022/08/31 02:31:03;;;;;;;0.30;0.30;;;;;;;16.52;56.54;102556.06;1984467;29;20547;-64
2022/08/31 02:32:12;;;;;;;0.30;0.30;;;;;;;16.48;56.57;102551.63;1970460;29;20109;-65
2022/08/31 02:33:23;;;;;;;0.40;0.40;;;;;;;16.46;56.56;102546.50;1962991;30;20060;-64
2022/08/31 02:34:26;;;;;;;0.30;0.30;;;;;;;16.44;56.51;102549.56;1980845;29;20047;-64
2022/08/31 02:35:29;;;;;;;0.30;0.30;;;;;;;16.46;56.44;102551.19;1992037;29;20066;-65
2022/08/31 02:36:31;;;;;;;0.40;0.40;;;;;;;16.43;56.48;102550.69;1984117;29;20195;-64
2022/08/31 02:37:37;;;;;;;0.30;0.30;;;;;;;16.39;56.58;102547.03;1983766;29;20058;-65
2022/08/31 02:38:39;;;;;;;0.40;0.40;;;;;;;16.40;56.62;102545.91;1977303;29;20055;-64
2022/08/31 02:39:45;;;;;;;0.38;0.38;;;;;;;16.38;56.59;102541.91;1984056;29;20110;-64
2022/08/31 02:40:50;;;;;;;0.30;0.30;;;;;;;16.31;56.64;102547.94;1983328;29;20461;-65
2022/08/31 02:41:53;;;;;;;0.40;0.40;;;;;;;16.26;56.92;102541.91;1983184;29;20059;-65
2022/08/31 02:42:55;;;;;;;0.30;0.30;;;;;;;16.27;57.24;102540.75;1982416;29;20051;-64
2022/08/31 02:44:01;;;;;;;0.30;0.30;;;;;;;16.22;57.19;102544.50;1976105;29;20158;-64
2022/08/31 02:45:04;;;;;;;0.40;0.40;;;;;;;16.21;57.20;102545.63;1975592;29;20063;-65
2022/08/31 02:46:07;;;;;;;0.30;0.30;;;;;;;16.18;57.27;102540.88;1977249;29;20059;-64
2022/08/31 02:47:15;;;;;;;0.30;0.30;;;;;;;16.17;57.47;102541.19;1977258;29;20089;-64
2022/08/31 02:48:24;;;;;;;0.30;0.30;;;;;;;16.17;57.46;102543.94;1976310;29;20063;-64
2022/08/31 02:49:26;;;;;;;0.30;0.30;;;;;;;16.15;57.46;102538.81;1982069;29;20568;-64
2022/08/31 02:50:29;;;;;;;0.30;0.30;;;;;;;16.15;57.51;102544.25;1989567;29;20054;-64
2022/08/31 02:51:32;;;;;;;0.30;0.30;;;;;;;16.15;57.49;102538.81;1984979;29;20054;-64
2022/08/31 02:52:37;;;;;;;0.30;0.30;;;;;;;16.11;57.60;102535.16;1975837;29;20054;-64
2022/08/31 02:53:39;;;;;;;0.30;0.30;;;;;;;16.13;57.45;102538.34;1975368;29;20059;-64
2022/08/31 02:54:42;;;;;;;0.30;0.30;;;;;;;16.15;57.29;102541.53;1982828;29;20126;-64
2022/08/31 02:55:46;;;;;;;0.30;0.30;;;;;;;16.14;57.57;102539.94;1984597;29;20130;-64
2022/08/31 02:56:50;;;;;;;0.30;0.30;;;;;;;16.14;57.53;102542.66;1984061;29;20537;-65
2022/08/31 02:57:53;;;;;;;0.20;0.20;;;;;;;16.14;57.38;102534.47;1984096;29;20090;-68
2022/08/31 02:58:57;;;;;;;0.20;0.20;;;;;;;16.15;57.38;102541.53;1984592;29;20065;-68
2022/08/31 02:59:59;;;;;;;0.22;0.22;;;;;;;16.15;57.42;102546.19;1983907;29;20138;-67
2022/08/31 03:01:04;;;;;;;0.30;0.30;;;;;;;16.13;57.66;102543.78;1974817;29;20127;-68
2022/08/31 03:02:07;;;;;;;0.20;0.20;;;;;;;16.11;57.41;102542.56;1977372;29;20051;-68
2022/08/31 03:03:13;;;;;;;0.20;0.20;;;;;;;16.08;57.24;102545.91;1985448;29;20054;-68
2022/08/31 03:04:15;;;;;;;0.20;0.20;;;;;;;16.05;57.53;102541.16;1986813;29;20604;-68
2022/08/31 03:05:21;;;;;;;0.20;0.20;;;;;;;16.04;57.83;102547.75;1977180;29;20051;-68
2022/08/31 03:06:23;;;;;;;0.20;0.20;;;;;;;16.04;57.67;102537.66;1968316;29;20059;-68
2022/08/31 03:07:26;;;;;;;0.20;0.20;;;;;;;16.00;57.84;102538.63;1976214;30;20104;-68
2022/08/31 03:08:28;;;;;;;0.10;0.10;;;;;;;16.01;57.64;102540.25;1983038;29;20133;-67
2022/08/31 03:09:33;;;;;;;0.20;0.20;;;;;;;15.97;57.65;102534.66;1982934;29;20424;-68
2022/08/31 03:10:36;;;;;;;0.22;0.22;;;;;;;15.91;58.36;102544.19;1975815;29;20160;-68
2022/08/31 03:11:40;;;;;;;0.20;0.20;;;;;;;15.92;58.37;102537.59;1981220;29;20059;-68
2022/08/31 03:12:43;;;;;;;0.30;0.30;;;;;;;15.92;58.12;102537.59;1982711;29;20192;-68
2022/08/31 03:13:46;;;;;;;0.20;0.20;;;;;;;15.88;58.26;102538.59;1976158;29;20836;-68
2022/08/31 03:14:48;;;;;;;0.20;0.20;;;;;;;15.90;58.32;102542.56;1985583;29;20054;-68
2022/08/31 03:15:51;;;;;;;0.20;0.20;;;;;;;15.87;58.53;102540.50;1991361;29;20103;-68
2022/08/31 03:16:53;;;;;;;0.30;0.30;;;;;;;15.86;58.73;102533.47;1984189;29;20065;-68
2022/08/31 03:17:57;;;;;;;0.20;0.20;;;;;;;15.86;58.88;102536.22;1984150;29;20154;-68
2022/08/31 03:18:59;;;;;;;0.20;0.20;;;;;;;15.83;58.64;102534.16;1982529;29;20096;-68
2022/08/31 03:20:03;;;;;;;0.20;0.20;;;;;;;15.84;58.74;102532.25;1982841;29;20055;-68
2022/08/31 03:21:06;;;;;;;0.20;0.20;;;;;;;15.83;58.78;102530.63;1984274;29;20065;-67
2022/08/31 03:22:09;;;;;;;0.30;0.30;;;;;;;15.76;59.01;102525.72;1984628;29;20204;-68
2022/08/31 03:23:14;;;;;;;0.30;0.30;;;;;;;15.78;59.28;102531.63;1984247;29;20079;-68
2022/08/31 03:24:16;;;;;;;0.20;0.20;;;;;;;15.79;59.10;102533.22;1982827;29;20396;-68
2022/08/31 03:25:20;;;;;;;0.20;0.20;;;;;;;15.77;59.33;102529.25;1977195;29;20708;-68
2022/08/31 03:26:23;;;;;;;0.20;0.20;;;;;;;15.79;58.95;102529.72;1975696;30;20131;-68
2022/08/31 03:27:29;;;;;;;0.20;0.20;;;;;;;15.79;59.38;102533.22;1975431;29;20087;-68
2022/08/31 03:28:31;;;;;;;0.30;0.30;;;;;;;15.74;59.38;102529.91;1990870;29;20065;-68
2022/08/31 03:29:57;;;;;;;0.20;0.20;;;;;;;15.72;59.41;102532.16;1987243;29;20508;-68
2022/08/31 03:31:04;;;;;;;0.20;0.20;;;;;;;15.73;59.58;102531.06;1990049;29;20646;-68
2022/08/31 03:32:08;;;;;;;0.20;0.20;;;;;;;15.73;59.48;102534.56;1985650;29;20055;-68
2022/08/31 03:33:11;;;;;;;0.20;0.20;;;;;;;15.72;59.33;102527.53;1982683;29;20051;-68
2022/08/31 03:34:14;;;;;;;0.20;0.20;;;;;;;15.73;59.65;102531.84;1983594;29;20520;-68
2022/08/31 03:35:17;;;;;;;0.20;0.20;;;;;;;15.73;59.31;102533.78;1989959;29;20785;-68
2022/08/31 03:36:20;;;;;;;0.20;0.20;;;;;;;15.70;59.78;102529.78;1983534;29;20127;-68
2022/08/31 03:37:22;;;;;;;0.25;0.25;;;;;;;15.74;59.69;102536.16;1983060;29;20059;-68
2022/08/31 03:38:25;;;;;;;0.20;0.20;;;;;;;15.72;59.90;102538.41;1984583;29;20546;-68
2022/08/31 03:39:27;;;;;;;0.22;0.22;;;;;;;15.73;59.69;102526.38;1976890;29;20063;-68
2022/08/31 03:40:31;;;;;;;0.30;0.30;;;;;;;15.73;59.66;102523.66;1983325;29;20058;-68
2022/08/31 03:41:33;;;;;;;0.30;0.30;;;;;;;15.72;59.76;102538.41;1982926;29;20096;-68
2022/08/31 03:42:38;;;;;;;0.22;0.22;;;;;;;15.73;59.80;102533.78;1976767;29;20087;-68
2022/08/31 03:43:41;;;;;;;0.20;0.20;;;;;;;15.68;60.06;102532.03;1975410;29;20071;-68
2022/08/31 03:44:46;;;;;;;0.30;0.30;;;;;;;15.69;60.11;102532.84;1984640;29;20073;-68
2022/08/31 03:45:56;;;;;;;0.20;0.20;;;;;;;15.67;60.35;102529.66;1976535;29;20559;-68
2022/08/31 03:46:58;;;;;;;0.20;0.20;;;;;;;15.68;60.14;102532.03;1967851;29;20055;-68
2022/08/31 03:48:04;;;;;;;0.30;0.30;;;;;;;15.66;60.24;102542.47;1976144;29;20058;-68
2022/08/31 03:49:13;;;;;;;0.30;0.30;;;;;;;15.63;60.37;102537.72;1978132;29;20066;-68
2022/08/31 03:50:26;;;;;;;0.20;0.20;;;;;;;15.59;60.90;102534.03;1976963;29;20066;-68
2022/08/31 03:51:41;;;;;;;0.25;0.25;;;;;;;15.58;61.35;102537.91;1977024;29;20055;-68
2022/08/31 03:52:44;;;;;;;0.20;0.20;;;;;;;15.58;61.03;102535.19;1974894;29;20063;-68
2022/08/31 03:53:52;;;;;;;0.20;0.20;;;;;;;15.58;60.96;102539.81;1976960;29;20480;-68
2022/08/31 03:54:55;;;;;;;0.20;0.20;;;;;;;15.57;60.78;102547.19;1983452;29;20595;-68
2022/08/31 03:56:00;;;;;;;0.20;0.20;;;;;;;15.55;61.29;102541.28;1983834;29;20760;-68
2022/08/31 03:57:05;;;;;;;0.30;0.30;;;;;;;15.54;61.43;102539.69;1976305;29;20056;-68
2022/08/31 03:58:10;;;;;;;0.20;0.20;;;;;;;15.56;61.04;102544.78;1983491;29;20050;-68
2022/08/31 03:59:14;;;;;;;0.20;0.20;;;;;;;15.54;61.45;102553.28;1983525;29;20058;-68
2022/08/31 04:00:36;;;;;;;0.28;0.28;;;;;;;15.50;61.72;102546.13;1983173;29;20436;-67
2022/08/31 04:01:46;;;;;;;0.30;0.30;;;;;;;15.48;61.81;102549.19;1984217;29;20541;-68
2022/08/31 04:03:08;;;;;;;0.20;0.20;;;;;;;15.45;61.88;102549.03;1983339;29;20082;-68
2022/08/31 04:04:30;;;;;;;0.28;0.28;;;;;;;15.44;61.55;102547.47;1967420;30;20071;-68
2022/08/31 04:05:52;;;;;;;0.30;0.30;;;;;;;15.40;62.04;102547.31;1983227;29;20055;-68
2022/08/31 04:07:12;;;;;;;0.30;0.30;;;;;;;15.41;62.47;102553.56;1983412;29;20089;-67
2022/08/31 04:08:34;;;;;;;;;;;;;;;15.25;62.57;102550.59;1984097;29;20058;-67
2022/08/31 04:09:55;;;;;;;0.30;0.30;;;;;;;15.34;62.35;102554.06;1982113;29;19925;-67
2022/08/31 04:11:27;;;;;;;0.30;0.30;;;;;;;15.34;62.32;102548.63;1984374;29;20062;-67
2022/08/31 04:13:08;;;;;;;0.30;0.30;;;;;;;15.31;62.49;102549.28;1990632;29;20579;-68
2022/08/31 04:14:34;;;;;;;0.30;0.30;;;;;;;15.33;62.39;102546.22;1965438;30;20064;-68
2022/08/31 04:15:59;;;;;;;0.30;0.30;;;;;;;15.34;62.16;102559.50;1981871;29;20059;-68
2022/08/31 04:17:20;;;;;;;0.20;0.20;;;;;;;15.30;62.59;102544.94;1982926;29;20047;-68
2022/08/31 04:18:29;;;;;;;0.30;0.30;;;;;;;15.31;62.90;102554.72;1986969;29;20095;-68
2022/08/31 04:19:31;;;;;;;0.30;0.30;;;;;;;15.32;62.94;102550.09;1975982;30;20059;-68
2022/08/31 04:20:48;;;;;;;0.30;0.30;;;;;;;15.31;62.92;102549.28;1982251;29;20104;-68
2022/08/31 04:21:51;;;;;;;0.30;0.30;;;;;;;15.33;62.86;102557.13;1985575;29;20058;-68
2022/08/31 04:22:54;;;;;;;0.35;0.35;;;;;;;15.32;62.98;102556.31;1983232;29;20511;-68
2022/08/31 04:24:17;;;;;;;0.30;0.30;;;;;;;15.28;63.63;102555.38;1985472;29;20090;-68
2022/08/31 04:25:22;;;;;;;0.40;0.40;;;;;;;15.28;63.35;102558.09;1983591;29;20099;-68
2022/08/31 04:26:27;;;;;;;0.25;0.25;;;;;;;15.28;63.50;102552.66;1976113;29;20143;-68
2022/08/31 04:27:29;;;;;;;0.30;0.30;;;;;;;15.28;63.55;102554.56;1987039;29;20081;-68
2022/08/31 04:28:32;;;;;;;0.30;0.30;;;;;;;15.26;63.33;102556.81;1985612;29;20519;-68
2022/08/31 04:29:36;;;;;;;0.40;0.40;;;;;;;15.24;63.80;102556.38;1985963;29;20084;-68
2022/08/31 04:30:39;;;;;;;0.30;0.30;;;;;;;15.23;64.17;102550.13;1978884;29;20512;-68
2022/08/31 04:31:42;;;;;;;0.40;0.40;;;;;;;15.22;63.71;102555.91;1970477;29;20055;-68
2022/08/31 04:32:46;;;;;;;0.40;0.40;;;;;;;15.22;63.94;102551.28;1980731;29;20059;-68
2022/08/31 04:33:48;;;;;;;0.35;0.35;;;;;;;15.23;63.89;102552.84;1979294;29;20528;-68
2022/08/31 04:34:54;;;;;;;0.40;0.40;;;;;;;15.22;64.47;102550.47;1977937;29;20063;-68
2022/08/31 04:35:58;;;;;;;0.40;0.40;;;;;;;15.23;64.43;102549.31;1976687;29;20080;-68
2022/08/31 04:37:01;;;;;;;0.40;0.40;;;;;;;15.23;64.04;102552.84;1980824;29;20071;-68
2022/08/31 04:38:04;;;;;;;0.40;0.40;;;;;;;15.23;64.32;102552.84;1981645;29;20121;-68
2022/08/31 04:39:07;;;;;;;0.30;0.30;;;;;;;15.23;63.84;102552.84;1984177;29;20117;-68
2022/08/31 04:40:16;;;;;;;0.30;0.30;;;;;;;15.22;64.51;102558.63;1987953;29;20133;-68
2022/08/31 04:41:23;;;;;;;0.30;0.30;;;;;;;15.21;64.88;102552.38;1987326;29;20055;-68
2022/08/31 04:42:27;;;;;;;0.40;0.40;;;;;;;15.19;64.63;102553.84;1979086;29;20050;-68
2022/08/31 04:43:30;;;;;;;0.38;0.38;;;;;;;15.22;64.68;102550.47;1983760;29;20060;-68
2022/08/31 04:44:32;;;;;;;0.30;0.30;;;;;;;15.22;64.55;102551.28;1982318;29;20062;-68
2022/08/31 04:45:42;;;;;;;0.40;0.40;;;;;;;15.23;64.24;102561.03;1984768;29;20054;-68
2022/08/31 04:46:47;;;;;;;0.40;0.40;;;;;;;15.22;64.72;102556.72;1978473;29;20068;-68
2022/08/31 04:47:50;;;;;;;0.40;0.40;;;;;;;15.24;64.43;102559.88;1984372;29;20059;-68
2022/08/31 04:48:53;;;;;;;0.40;0.40;;;;;;;15.23;64.74;102552.84;1980679;29;20065;-68
2022/08/31 04:49:55;;;;;;;0.40;0.40;;;;;;;15.24;65.06;102557.16;1982967;29;20062;-68
2022/08/31 04:51:05;;;;;;;0.40;0.40;;;;;;;15.25;64.85;102555.25;1985504;29;20082;-67
2022/08/31 04:52:08;;;;;;;0.40;0.40;;;;;;;15.21;64.70;102552.38;1982502;29;20431;-68
2022/08/31 04:53:10;;;;;;;0.40;0.40;;;;;;;15.25;64.93;102558.78;1984955;29;20420;-67
2022/08/31 04:54:14;;;;;;;0.50;0.50;;;;;;;15.29;64.67;102556.97;1976302;29;20048;-68
2022/08/31 04:55:16;;;;;;;0.40;0.40;;;;;;;15.30;64.80;102553.13;1981647;29;20717;-68
2022/08/31 04:56:24;;;;;;;0.40;0.40;;;;;;;15.33;64.82;102555.19;1984546;29;20058;-67
2022/08/31 04:57:26;;;;;;;0.40;0.40;;;;;;;15.33;64.60;102560.66;1993353;29;20085;-69
2022/08/31 04:58:29;;;;;;;0.40;0.40;;;;;;;15.34;64.86;102556.78;1982792;29;20050;-67
2022/08/31 04:59:31;;;;;;;0.35;0.35;;;;;;;15.36;65.07;102554.53;1978493;29;20185;-68
2022/08/31 05:01:11;;;;;;;0.40;0.40;;;;;;;15.35;64.93;102561.09;1978682;29;20051;-68
2022/08/31 05:02:40;;;;;;;0.40;0.40;;;;;;;15.35;65.12;102555.66;1978404;29;20138;-68
2022/08/31 05:03:51;;;;;;;0.50;0.50;;;;;;;15.38;64.78;102565.91;1985328;29;20176;-68
2022/08/31 05:04:54;;;;;;;0.50;0.50;;;;;;;15.45;64.77;102565.38;1985993;29;20054;-68
2022/08/31 05:05:56;;;;;;;0.50;0.50;;;;;;;15.47;64.93;102568.56;1986780;29;20130;-68
2022/08/31 05:06:59;;;;;;;0.40;0.40;;;;;;;15.49;65.03;102567.09;1988042;29;20046;-69
2022/08/31 05:08:02;;;;;;;0.40;0.40;;;;;;;15.50;64.85;102568.72;1974807;29;20555;-68
2022/08/31 05:09:08;;;;;;;0.40;0.40;;;;;;;15.52;65.09;102571.09;1971827;29;20728;-69